Flat Rock, MI (48134)

11:03 PM EST on February 09, 2016 (GMT -0500)
Timber Creek | | Change Station
CLOSE
Current Station
Personal Weather Station
Location: Brownstown Charter Township, MI
Elevation: 615 ft
Nearby Weather Stations

Elev 615 ft 42.13 °N, 83.29 °W | Updated 15 seconds ago

Overcast
Overcast
25.5 °F
Feels Like 26 °F
N
1.1
Wind Variable Wind from SW
Gusts 2.5 mph

Today
High -- | Low -- °F
--% Chance of Precip.
Yesterday
High -- | Low -- °F
Precip. -- in
Pressure 29.71 in
Visibility 10.0 miles
Clouds Overcast 2900 ft
Windchill 26 °F
Dew Point 17 °F
Humidity 69%
Rainfall 0.05 in
Snow Depth Not available.
7:37 AM 5:57 PM
Waxing Crescent, 3% visible
METAR KONZ 100354Z AUTO 27009KT 10SM -SN OVC029 M03/M06 A2971 RMK AO2
Pressure 29.71 in
Visibility 10.0 miles
Clouds Overcast 2900 ft
Windchill 26 °F
Dew Point 17 °F
Humidity 69%
Rainfall 0.05 in
Snow Depth Not available.
7:37 AM 5:57 PM
Waxing Crescent, 3% visible
METAR KONZ 100354Z AUTO 27009KT 10SM -SN OVC029 M03/M06 A2971 RMK AO2

10-Day Weather Forecast

Almanac

Astronomy

Feb. 09, 2016 Rise Set
Actual Time
Civil Twilight
Nautical Twilight
Astronomical Twilight
Moon
Length of Visible Light
Length of Day
Tomorrow will be .
, % of the Moon is Illuminated

Today's Extremes

State Highs State Lows

Community

WunderPhotos

Upload Photos

1,891,795 photos uploaded!

WunderBlog® & News

Nearby

Air Quality

  Air Quality AQ Index Pollutant
Not available.

Snow Depth

Station Depth Elevation

Earthquake Activity

City Distance Mag. Time & Date
Minimum magnitude displayed is 2.5.

Coastal Water Temperatures

Place Temperature

Stations

Nearby Weather Stations

Station Location Temp. Windchill Dew Point Humidity Wind Precip. Elev Updated Type
                   

Watches & Warnings

There are currently no watches in effect.